• Join FlightAware (Why Join?)
  • Login
  • US Flag GB Flag 
03:27 EDT


 

Airport Tracker/Info


-or-


 

Live Flight TrackerFlight Track Log ✈ EJA727 ✈ 30-Aug-2013 ✈ KBFM - KDAL

Flight Track Log - Related Links

Times and Time Zones

All times are in EDT time to prevent confusion due to time zone crossing. See the EJA727 flight status page for this flight to view local times or setup timezone preferences in your user account.

Time Position Orientation Groundspeed Altitude Reporting Facility
EDT Latitude Longitude Course Direction KTS MPH feet Rate Location/Type
14:06 30.5894 -88.0325 210° Southwest 215 247 1,900  Level Houston Center
14:07 30.5525 -88.0569 210° Southwest 213 245 3,600 3,120 Climbing Houston Center
14:08 30.5631 -88.1586 277° West 265 305 8,400 3,960 Climbing Houston Center
14:09 30.5794 -88.2556 281° West 296 341 11,900 3,300 Climbing Houston Center
14:10 30.5842 -88.3714 273° West 357 411 15,300 3,120 Climbing Houston Center
14:11 30.5739 -88.4914 264° West 372 428 18,400 2,640 Climbing Houston Center
14:12 30.5975 -88.6158 282° West 391 450 20,800 2,100 Climbing Houston Center
14:13 30.6214 -88.7453 282° West 407 468 22,800 1,140 Climbing Houston Center
14:14 30.6469 -88.8897 282° West 448 516 23,200 1,440 Climbing Houston Center
14:15 30.6778 -89.0453 283° West 471 542 25,800 2,640 Climbing Houston Center
14:16 30.7078 -89.2133 282° West 450 518 28,700 2,220 Climbing Houston Center
14:18 30.7333 -89.3544 282° West 452 520 30,500 1,320 Climbing Houston Center
14:19 30.7606 -89.5008 282° West 471 542 31,500 1,020 Climbing Houston Center
14:20 30.7892 -89.6508 283° West 475 547 32,700 1,380 Climbing Houston Center
14:21 30.8158 -89.8006 282° West 477 549 34,400 1,440 Climbing Houston Center
14:22 30.8458 -89.9789 281° West 471 542 35,700 1,020 Climbing Houston Center
14:23 30.8733 -90.1256 282° West 467 537 36,600 720 Climbing Houston Center
14:25 30.9247 -90.4242 281° West 466 536 38,000 420 Climbing Houston Center
14:26 30.9503 -90.5728 281° West 468 539 38,000  Level Houston Center
14:27 30.9789 -90.7528 281° West 470 541 38,000  Level Houston Center
14:28 31.0042 -90.9014 281° West 469 540 38,000  Level Houston Center
14:29 31.0269 -91.0497 280° West 465 535 38,000  Level Houston Center
14:30 31.0531 -91.1975 282° West 461 531 38,000 120 Level Houston Center
14:31 31.0767 -91.3464 281° West 464 534 38,300 420 Climbing Houston Center
14:32 31.1028 -91.5211 280° West 468 539 38,900 480 Climbing Houston Center
14:33 31.1278 -91.6708 281° West 470 541 39,400 480 Climbing Houston Center
14:34 31.1503 -91.8183 280° West 462 532 39,900 240 Climbing Houston Center
14:35 31.1733 -91.9664 280° West 462 532 40,000  Climbing Houston Center
14:36 31.1964 -92.1194 280° West 453 521 40,000  Level Houston Center
14:37 31.2192 -92.2664 280° West 459 528 40,000  Level Houston Center
14:38 31.2456 -92.4425 280° West 460 529 40,000  Level Houston Center
14:39 31.2900 -92.5864 290° West 466 536 40,000  Level Houston Center
14:40 31.3417 -92.7217 294° West 461 531 40,000  Level Houston Center
14:41 31.3931 -92.8592 294° West 463 533 40,000  Level Houston Center
14:42 31.4444 -92.9947 294° West 459 528 40,000  Level Houston Center
14:43 31.5044 -93.1572 293° West 457 526 40,000  Level Houston Center
14:44 31.5553 -93.2917 294° West 455 524 40,000  Level Houston Center
14:45 31.6100 -93.4392 294° West 456 525 40,000  Level Houston Center
14:47 31.6597 -93.5747 293° West 454 522 40,000  Level Houston Center
14:48 31.7106 -93.7181 293° West 454 522 40,000  Level Houston Center
14:50 31.8014 -93.9867 292° West 453 521 40,000  Level Houston Center
14:51 31.8475 -94.1231 292° West 451 519 40,000  Level Houston Center
14:52 31.8953 -94.2628 292° West 446 513 40,000  Level Houston Center
14:53 31.9450 -94.4164 291° West 424 488 40,000 -60 Level Houston Center
14:54 31.9883 -94.5458 292° West 425 489 39,900 -1,200 Descending Houston Center
14:55 32.0308 -94.6767 291° West 429 494 37,600 -2,220 Descending Houston Center
14:56 32.0781 -94.8219 291° West 437 503 35,300 -2,340 Descending Fort Worth Center
14:57 32.1206 -94.9556 291° West 442 509 32,900 -2,280 Descending Fort Worth Center
14:58 32.1294 -95.0928 274° West 426 490 30,800 -2,100 Descending Fort Worth Center
14:59 32.1339 -95.2275 272° West 426 490 28,800 -2,100 Descending Fort Worth Center
15:00 32.1381 -95.3575 272° West 416 479 26,700 -1,980 Descending Fort Worth Center
15:01 32.1528 -95.4872 278° West 411 473 24,900 -1,680 Descending Fort Worth Center
15:02 32.2067 -95.5989 300° West 389 448 23,400 -1,980 Descending Fort Worth Center
15:03 32.2647 -95.7181 300° West 389 448 21,000 -2,520 Descending Fort Worth Center
15:04 32.3183 -95.8303 300° West 394 453 18,400 -2,520 Descending Fort Worth Center
15:05 32.3781 -95.9497 301° West 416 479 16,000 -2,160 Descending Fort Worth Center
15:06 32.4253 -96.0475 300° West 407 468 14,100 -1,920 Descending Fort Worth Center
15:07 32.4786 -96.1575 300° West 359 413 12,200 -1,800 Descending Fort Worth Center
15:08 32.5169 -96.2381 299° West 326 375 10,600 -2,100 Descending Fort Worth Center
15:09 32.5636 -96.3339 300° West 306 352 8,100 -2,400 Descending Fort Worth Center
15:10 32.6039 -96.4022 305° West 296 341 5,900 -1,560 Descending Fort Worth Center
15:11 32.6506 -96.4881 303° West 284 327 5,000 -480 Descending Fort Worth Center
15:12 32.6969 -96.5469 313° West 278 320 5,000  Level Fort Worth Center
15:13 32.7600 -96.6156 318° Northwest 278 320 5,000  Level Fort Worth Center
15:14 32.8167 -96.6833 315° West 273 314 5,000 -600 Level Dallas / Fort Worth TRACON
15:15 32.8667 -96.7333 320° Northwest 280 322 3,800 -1,020 Descending Dallas / Fort Worth TRACON
15:16 32.9167 -96.8167 306° West 251 289 3,000 -660 Descending Dallas / Fort Worth TRACON
15:17 32.9333 -96.8833 287° West 188 216 2,500 -780 Descending Dallas / Fort Worth TRACON
15:18 32.8833 -96.8833 180° South 131 151 1,400 -660 Descending Dallas / Fort Worth TRACON
15:20 32.8425 -96.8594 154° Southeast 83 96 600 -480 Descending Fort Worth Center